Time;durP1;ratioP1;P1;durP2;ratioP2;P2;SDS_P1;SDS_P2;PMS_P1;PMS_P2;Temp;Humidity;BMP_temperature;BMP_pressure;BME280_temperature;BME280_humidity;BME280_pressure;Samples;Min_cycle;Max_cycle;Signal;HPM_P1;HPM_P2
2022/03/24 00:00:19;;;;;;;57.30;32.85;;;;;;;;;;5097637;28;20042;-74
2022/03/24 00:02:46;;;;;;;55.38;33.05;;;;;;;;;;5114157;28;20044;-74
2022/03/24 00:05:12;;;;;;;63.90;32.92;;;;;;;;;;5114828;28;20043;-74
2022/03/24 00:07:38;;;;;;;59.78;32.97;;;;;;;;;;5097632;28;20092;-74
2022/03/24 00:10:05;;;;;;;57.78;32.55;;;;;;;;;;5115082;28;20044;-74
2022/03/24 00:12:31;;;;;;;57.03;31.40;;;;;;;;;;5097087;28;20035;-73
2022/03/24 00:14:57;;;;;;;57.33;32.35;;;;;;;;;;5097265;28;20044;-73
2022/03/24 00:17:23;;;;;;;59.55;33.17;;;;;;;;;;5115712;28;20039;-73
2022/03/24 00:19:49;;;;;;;58.25;32.78;;;;;;;;;;5114671;28;20076;-73
2022/03/24 00:22:15;;;;;;;56.45;33.05;;;;;;;;;;5115360;28;20042;-73
2022/03/24 00:24:42;;;;;;;58.17;32.75;;;;;;;;;;5116204;28;20469;-73
2022/03/24 00:27:09;;;;;;;62.70;33.85;;;;;;;;;;5097460;28;20038;-74
2022/03/24 00:29:35;;;;;;;62.78;33.65;;;;;;;;;;5114425;28;20043;-73
2022/03/24 00:32:00;;;;;;;59.20;34.85;;;;;;;;;;5115161;28;20039;-74
2022/03/24 00:34:26;;;;;;;58.92;33.33;;;;;;;;;;5099305;28;20034;-74
2022/03/24 00:36:52;;;;;;;57.58;33.60;;;;;;;;;;5118677;28;20035;-74
2022/03/24 00:39:18;;;;;;;62.60;34.22;;;;;;;;;;5119284;28;20042;-74
2022/03/24 00:41:44;;;;;;;63.60;35.22;;;;;;;;;;5101171;28;20055;-74
2022/03/24 00:44:11;;;;;;;64.70;35.10;;;;;;;;;;5100978;28;20504;-74
2022/03/24 00:46:37;;;;;;;61.00;34.00;;;;;;;;;;5100983;28;20040;-74
2022/03/24 00:49:04;;;;;;;61.70;34.72;;;;;;;;;;5118210;28;20348;-73
2022/03/24 00:51:30;;;;;;;63.75;35.25;;;;;;;;;;5118291;28;20047;-74
2022/03/24 00:53:56;;;;;;;56.60;34.58;;;;;;;;;;5118096;28;20035;-75
2022/03/24 00:56:23;;;;;;;59.10;34.72;;;;;;;;;;5119138;28;20092;-73
2022/03/24 00:58:49;;;;;;;61.95;36.30;;;;;;;;;;5118787;28;20358;-75
2022/03/24 01:01:15;;;;;;;64.05;35.28;;;;;;;;;;5118123;28;20457;-74
2022/03/24 01:03:42;;;;;;;68.25;35.13;;;;;;;;;;5117749;28;20087;-73
2022/03/24 01:06:08;;;;;;;57.53;34.00;;;;;;;;;;5117726;28;20114;-74
2022/03/24 01:08:34;;;;;;;63.45;36.40;;;;;;;;;;5100595;28;20040;-73
2022/03/24 01:11:01;;;;;;;66.10;36.78;;;;;;;;;;5100956;28;20071;-73
2022/03/24 01:13:28;;;;;;;66.25;36.75;;;;;;;;;;5117841;28;20113;-74
2022/03/24 01:15:54;;;;;;;68.50;37.00;;;;;;;;;;5118501;28;20444;-73
2022/03/24 01:18:20;;;;;;;62.65;36.30;;;;;;;;;;5118199;28;20032;-73
2022/03/24 01:20:46;;;;;;;60.47;35.40;;;;;;;;;;5117260;28;20054;-73
2022/03/24 01:23:13;;;;;;;65.20;35.78;;;;;;;;;;5100274;28;20036;-73
2022/03/24 01:25:42;;;;;;;60.83;35.85;;;;;;;;;;5117117;28;20375;-73
2022/03/24 01:28:09;;;;;;;61.20;35.25;;;;;;;;;;5117475;28;20075;-73
2022/03/24 01:30:36;;;;;;;65.32;36.85;;;;;;;;;;5117385;28;20062;-73
2022/03/24 01:33:02;;;;;;;65.47;36.58;;;;;;;;;;5100358;28;20118;-73
2022/03/24 01:35:28;;;;;;;62.10;35.67;;;;;;;;;;5117710;28;20078;-73
2022/03/24 01:37:54;;;;;;;67.47;37.05;;;;;;;;;;5118657;28;20039;-73
2022/03/24 01:40:20;;;;;;;66.10;36.65;;;;;;;;;;5099799;28;20043;-73
2022/03/24 01:42:46;;;;;;;66.53;37.20;;;;;;;;;;5100204;28;20042;-73
2022/03/24 01:45:14;;;;;;;62.22;36.85;;;;;;;;;;5117268;28;20196;-73
2022/03/24 01:47:40;;;;;;;63.10;36.17;;;;;;;;;;5100006;28;20040;-73
2022/03/24 01:50:07;;;;;;;73.65;37.75;;;;;;;;;;5116655;28;20367;-73
2022/03/24 01:52:33;;;;;;;63.50;36.50;;;;;;;;;;5099687;28;20383;-73
2022/03/24 01:54:59;;;;;;;64.00;37.45;;;;;;;;;;5116863;28;20141;-73
2022/03/24 01:57:26;;;;;;;68.93;37.05;;;;;;;;;;5117060;28;20083;-73
2022/03/24 01:59:52;;;;;;;65.18;37.90;;;;;;;;;;5099536;28;20362;-73
2022/03/24 02:02:18;;;;;;;72.72;36.70;;;;;;;;;;5099527;28;20040;-73
2022/03/24 02:04:45;;;;;;;66.25;37.42;;;;;;;;;;5099699;28;20142;-73
2022/03/24 02:07:10;;;;;;;63.90;36.22;;;;;;;;;;5117065;28;20035;-74
2022/03/24 02:09:37;;;;;;;67.82;38.20;;;;;;;;;;5099606;28;20043;-73
2022/03/24 02:12:06;;;;;;;71.45;36.60;;;;;;;;;;5100018;28;20058;-73
2022/03/24 02:14:32;;;;;;;65.80;36.20;;;;;;;;;;5116745;28;20035;-73
2022/03/24 02:16:58;;;;;;;68.18;38.00;;;;;;;;;;5099393;28;20038;-74
2022/03/24 02:19:25;;;;;;;69.43;37.47;;;;;;;;;;5116293;28;20373;-74
2022/03/24 02:21:51;;;;;;;66.55;38.00;;;;;;;;;;5099524;28;20099;-74
2022/03/24 02:24:18;;;;;;;68.60;37.30;;;;;;;;;;5116186;28;20047;-74
2022/03/24 02:26:44;;;;;;;60.70;36.65;;;;;;;;;;5099055;28;20046;-74
2022/03/24 02:29:11;;;;;;;64.55;36.42;;;;;;;;;;5116011;28;20047;-74
2022/03/24 02:31:38;;;;;;;69.00;37.70;;;;;;;;;;5098707;28;20427;-74
2022/03/24 02:36:49;;;;;;;70.20;37.63;;;;;;;;;;5116385;28;20035;-74
2022/03/24 02:39:16;;;;;;;72.65;37.83;;;;;;;;;;5117078;28;20032;-74
2022/03/24 02:41:52;;;;;;;69.55;38.05;;;;;;;;;;5115751;28;20150;-74
2022/03/24 02:44:19;;;;;;;65.43;36.45;;;;;;;;;;5115979;28;20046;-74
2022/03/24 02:46:47;;;;;;;70.15;37.53;;;;;;;;;;5115903;28;20469;-74
2022/03/24 02:49:13;;;;;;;69.03;37.20;;;;;;;;;;5115909;28;20046;-75
2022/03/24 02:51:39;;;;;;;68.82;37.65;;;;;;;;;;5098958;28;20047;-75
2022/03/24 02:54:05;;;;;;;69.00;35.97;;;;;;;;;;5115435;28;20035;-75
2022/03/24 02:56:31;;;;;;;70.15;38.97;;;;;;;;;;5115567;28;20048;-75
2022/03/24 02:58:57;;;;;;;63.05;36.42;;;;;;;;;;5115895;28;20067;-75
2022/03/24 03:01:27;;;;;;;62.92;36.92;;;;;;;;;;5098567;28;20077;-75
2022/03/24 03:03:53;;;;;;;67.32;38.92;;;;;;;;;;5116277;28;20063;-75
2022/03/24 03:06:19;;;;;;;70.35;37.90;;;;;;;;;;5115869;28;20100;-75
2022/03/24 03:08:46;;;;;;;72.47;39.67;;;;;;;;;;5115640;28;20031;-75
2022/03/24 03:11:12;;;;;;;70.20;38.03;;;;;;;;;;5115759;28;20093;-75
2022/03/24 03:13:38;;;;;;;68.63;38.35;;;;;;;;;;5116372;28;20451;-75
2022/03/24 03:16:04;;;;;;;70.07;38.75;;;;;;;;;;5115497;28;20096;-75
2022/03/24 03:18:33;;;;;;;73.22;39.65;;;;;;;;;;5115263;28;20032;-75
2022/03/24 03:20:59;;;;;;;65.22;37.97;;;;;;;;;;5117260;28;20035;-75
2022/03/24 03:23:26;;;;;;;67.13;38.97;;;;;;;;;;5115561;28;20043;-75
2022/03/24 03:25:52;;;;;;;69.10;39.35;;;;;;;;;;5116526;28;20128;-74
2022/03/24 03:28:18;;;;;;;72.10;40.50;;;;;;;;;;5099307;28;20039;-74
2022/03/24 03:30:45;;;;;;;75.18;41.28;;;;;;;;;;5117267;28;20039;-75
2022/03/24 03:33:11;;;;;;;71.95;39.30;;;;;;;;;;5116766;28;20054;-75
2022/03/24 03:35:37;;;;;;;76.68;41.17;;;;;;;;;;5118262;28;20036;-74
2022/03/24 03:38:03;;;;;;;70.97;39.95;;;;;;;;;;5117401;28;20482;-75
2022/03/24 03:40:29;;;;;;;75.88;39.92;;;;;;;;;;5115145;28;20036;-75
2022/03/24 03:42:55;;;;;;;68.30;39.38;;;;;;;;;;5115156;28;20099;-75
2022/03/24 03:45:21;;;;;;;78.80;41.88;;;;;;;;;;5098167;28;20043;-74
2022/03/24 03:47:47;;;;;;;74.15;39.88;;;;;;;;;;5115351;28;20039;-75
2022/03/24 03:50:13;;;;;;;71.82;39.65;;;;;;;;;;5114755;28;20067;-74
2022/03/24 03:52:39;;;;;;;72.45;40.22;;;;;;;;;;5116074;28;20404;-75
2022/03/24 03:55:06;;;;;;;75.40;40.53;;;;;;;;;;5115125;28;20035;-74
2022/03/24 03:57:32;;;;;;;74.78;40.75;;;;;;;;;;5115318;28;20058;-75
2022/03/24 04:00:52;;;;;;;73.88;41.70;;;;;;;;;;5098217;28;20031;-76
2022/03/24 04:02:47;;;;;;;73.70;40.88;;;;;;;;;;5114578;28;20439;-75
2022/03/24 04:05:13;;;;;;;71.88;39.78;;;;;;;;;;5114744;28;20165;-75
2022/03/24 04:07:39;;;;;;;78.65;41.97;;;;;;;;;;5114761;28;20032;-75
2022/03/24 04:10:05;;;;;;;75.15;40.47;;;;;;;;;;5114120;28;20091;-75
2022/03/24 04:12:31;;;;;;;79.10;41.10;;;;;;;;;;5113954;28;20525;-74
2022/03/24 04:14:57;;;;;;;72.78;41.25;;;;;;;;;;5097760;28;20161;-75
2022/03/24 04:17:23;;;;;;;76.97;40.22;;;;;;;;;;5114692;28;20047;-74
2022/03/24 04:19:48;;;;;;;76.28;41.40;;;;;;;;;;5114639;28;20089;-74
2022/03/24 04:22:14;;;;;;;74.07;41.58;;;;;;;;;;5115623;28;20047;-74
2022/03/24 04:24:40;;;;;;;79.15;41.25;;;;;;;;;;5114423;28;20043;-74
2022/03/24 04:27:07;;;;;;;81.43;43.08;;;;;;;;;;5097223;28;20114;-75
2022/03/24 04:29:33;;;;;;;72.65;41.33;;;;;;;;;;5114340;28;20050;-74
2022/03/24 04:31:58;;;;;;;73.68;42.83;;;;;;;;;;5114921;28;20036;-74
2022/03/24 04:34:24;;;;;;;74.90;41.28;;;;;;;;;;5114052;28;20031;-74
2022/03/24 04:36:50;;;;;;;77.60;41.90;;;;;;;;;;5114352;28;20389;-74
2022/03/24 04:39:16;;;;;;;78.75;42.10;;;;;;;;;;5113971;28;20031;-74
2022/03/24 04:41:42;;;;;;;76.20;41.55;;;;;;;;;;5096828;28;20036;-74
2022/03/24 04:44:08;;;;;;;73.35;41.15;;;;;;;;;;5114091;28;20040;-74
2022/03/24 04:46:34;;;;;;;78.45;42.78;;;;;;;;;;5113800;28;20117;-75
2022/03/24 04:49:02;;;;;;;76.63;43.50;;;;;;;;;;5113996;28;20035;-74
2022/03/24 04:51:28;;;;;;;78.97;43.55;;;;;;;;;;5097156;28;20055;-75
2022/03/24 04:53:54;;;;;;;77.15;43.55;;;;;;;;;;5114087;28;20435;-75
2022/03/24 04:56:20;;;;;;;79.75;43.65;;;;;;;;;;5114086;28;20036;-74
2022/03/24 04:58:48;;;;;;;76.57;43.00;;;;;;;;;;5097677;28;20047;-74
2022/03/24 05:01:14;;;;;;;81.05;43.38;;;;;;;;;;5114148;28;20047;-74
2022/03/24 05:03:46;;;;;;;82.38;45.15;;;;;;;;;;5113696;28;20062;-74
2022/03/24 05:06:12;;;;;;;85.05;45.28;;;;;;;;;;5114155;28;20053;-74
2022/03/24 05:08:38;;;;;;;77.93;42.47;;;;;;;;;;5115241;28;20032;-73
2022/03/24 05:11:04;;;;;;;84.13;45.78;;;;;;;;;;5114072;28;20663;-74
2022/03/24 05:13:30;;;;;;;81.10;43.92;;;;;;;;;;5096620;28;20059;-73
2022/03/24 05:15:56;;;;;;;87.55;44.95;;;;;;;;;;5113917;28;20032;-73
2022/03/24 05:18:24;;;;;;;84.43;44.20;;;;;;;;;;5097102;28;20039;-74
2022/03/24 05:20:50;;;;;;;78.13;44.88;;;;;;;;;;5116219;28;20490;-73
2022/03/24 05:23:16;;;;;;;88.28;44.83;;;;;;;;;;5117491;28;20039;-74
2022/03/24 05:25:43;;;;;;;84.85;44.17;;;;;;;;;;5118207;28;20374;-74
2022/03/24 05:28:09;;;;;;;83.90;45.17;;;;;;;;;;5124676;28;20059;-79
2022/03/24 05:30:36;;;;;;;81.47;44.88;;;;;;;;;;5122015;28;20069;-78
2022/03/24 05:33:02;;;;;;;83.43;46.40;;;;;;;;;;5124128;28;20039;-78
2022/03/24 05:35:32;;;;;;;92.55;47.15;;;;;;;;;;5120710;28;20045;-78
2022/03/24 05:37:58;;;;;;;77.53;44.55;;;;;;;;;;5121414;28;20059;-77
2022/03/24 05:40:24;;;;;;;83.78;46.03;;;;;;;;;;5120412;28;20043;-77
2022/03/24 05:42:50;;;;;;;82.80;45.42;;;;;;;;;;5121581;28;20055;-77
2022/03/24 05:45:16;;;;;;;81.30;44.78;;;;;;;;;;5103982;28;20036;-77
2022/03/24 05:47:42;;;;;;;84.72;45.70;;;;;;;;;;5120620;28;20094;-77
2022/03/24 05:50:09;;;;;;;87.53;45.28;;;;;;;;;;5121765;28;20475;-77
2022/03/24 05:52:35;;;;;;;88.55;46.13;;;;;;;;;;5104455;28;20040;-77
2022/03/24 05:55:01;;;;;;;83.85;44.45;;;;;;;;;;5121573;28;20339;-77
2022/03/24 05:57:27;;;;;;;84.57;45.25;;;;;;;;;;5120457;28;20114;-77
2022/03/24 05:59:53;;;;;;;88.63;45.17;;;;;;;;;;5104390;28;20042;-77
2022/03/24 06:02:20;;;;;;;85.68;44.67;;;;;;;;;;5120602;28;20068;-76
2022/03/24 06:04:47;;;;;;;78.22;43.78;;;;;;;;;;5120106;28;20043;-77
2022/03/24 06:07:14;;;;;;;80.50;41.47;;;;;;;;;;5119960;28;20039;-77
2022/03/24 06:09:40;;;;;;;82.43;43.83;;;;;;;;;;5103676;28;20035;-77
2022/03/24 06:12:10;;;;;;;84.30;44.83;;;;;;;;;;5103532;28;20039;-77
2022/03/24 06:14:36;;;;;;;79.88;42.33;;;;;;;;;;5103719;28;20107;-77
2022/03/24 06:17:03;;;;;;;78.80;43.33;;;;;;;;;;5102958;28;20415;-77
2022/03/24 06:19:29;;;;;;;79.68;42.67;;;;;;;;;;5120881;28;20035;-77
2022/03/24 06:21:56;;;;;;;83.53;44.33;;;;;;;;;;5118505;28;20040;-76
2022/03/24 06:24:22;;;;;;;77.90;43.67;;;;;;;;;;5101145;28;20435;-76
2022/03/24 06:26:48;;;;;;;75.85;43.15;;;;;;;;;;5102135;28;20383;-78
2022/03/24 06:29:14;;;;;;;73.53;42.10;;;;;;;;;;5101797;28;20039;-78
2022/03/24 06:31:44;;;;;;;82.70;45.08;;;;;;;;;;5102606;28;20091;-76
2022/03/24 06:34:10;;;;;;;81.32;43.92;;;;;;;;;;5119339;28;20112;-78
2022/03/24 06:36:36;;;;;;;80.45;43.45;;;;;;;;;;5118404;28;20040;-78
2022/03/24 06:39:02;;;;;;;75.20;42.88;;;;;;;;;;5117699;28;20092;-78
2022/03/24 06:41:28;;;;;;;72.57;42.58;;;;;;;;;;5101275;28;20085;-79
2022/03/24 06:43:57;;;;;;;76.72;42.63;;;;;;;;;;5122232;28;20050;-78
2022/03/24 06:46:25;;;;;;;83.47;43.90;;;;;;;;;;5124860;28;20043;-77
2022/03/24 06:48:51;;;;;;;79.40;43.13;;;;;;;;;;5123168;28;20036;-78
2022/03/24 06:51:18;;;;;;;79.65;44.58;;;;;;;;;;5104758;28;20056;-79
2022/03/24 06:53:44;;;;;;;84.07;45.63;;;;;;;;;;5119224;28;20122;-79
2022/03/24 06:56:10;;;;;;;79.75;45.05;;;;;;;;;;5102363;28;20035;-79
2022/03/24 06:58:36;;;;;;;78.10;44.05;;;;;;;;;;5119701;28;20382;-79
2022/03/24 07:01:03;;;;;;;83.18;44.42;;;;;;;;;;5123658;28;20085;-79
2022/03/24 07:03:29;;;;;;;78.65;44.10;;;;;;;;;;5122569;28;20047;-79
2022/03/24 07:05:55;;;;;;;86.28;44.03;;;;;;;;;;5119809;28;20050;-78
2022/03/24 07:08:23;;;;;;;87.20;44.65;;;;;;;;;;5102762;28;20100;-79
2022/03/24 07:10:49;;;;;;;81.35;45.40;;;;;;;;;;5102824;28;20111;-78
2022/03/24 07:13:16;;;;;;;86.15;46.03;;;;;;;;;;5118231;28;20474;-78
2022/03/24 07:15:42;;;;;;;89.30;46.13;;;;;;;;;;5101854;28;20035;-79
2022/03/24 07:18:08;;;;;;;82.78;45.08;;;;;;;;;;5119111;28;20100;-78
2022/03/24 07:20:35;;;;;;;81.32;44.05;;;;;;;;;;5101794;28;20111;-78
2022/03/24 07:23:03;;;;;;;81.55;45.13;;;;;;;;;;5118109;28;20042;-78
2022/03/24 07:25:29;;;;;;;86.85;45.10;;;;;;;;;;5118705;28;20040;-78
2022/03/24 07:27:55;;;;;;;82.07;44.47;;;;;;;;;;5100081;28;20051;-79
2022/03/24 07:30:21;;;;;;;83.22;44.83;;;;;;;;;;5100899;28;20105;-78
2022/03/24 07:32:48;;;;;;;80.43;44.30;;;;;;;;;;5119848;28;20426;-78
2022/03/24 07:35:14;;;;;;;85.53;44.88;;;;;;;;;;5101769;28;20429;-77
2022/03/24 07:37:40;;;;;;;75.47;42.53;;;;;;;;;;5118006;28;20099;-78
2022/03/24 07:40:08;;;;;;;77.68;43.17;;;;;;;;;;5117901;28;20427;-78
2022/03/24 07:42:34;;;;;;;77.28;43.70;;;;;;;;;;5119287;28;20078;-78
2022/03/24 07:45:00;;;;;;;82.75;43.75;;;;;;;;;;5118052;28;20036;-78
2022/03/24 07:47:26;;;;;;;74.75;44.22;;;;;;;;;;5118647;28;20035;-78
2022/03/24 07:49:53;;;;;;;85.18;43.85;;;;;;;;;;5100808;28;20120;-77
2022/03/24 07:52:19;;;;;;;76.78;43.78;;;;;;;;;;5117885;28;20058;-78
2022/03/24 07:54:46;;;;;;;84.53;44.42;;;;;;;;;;5117588;28;20736;-78
2022/03/24 07:57:12;;;;;;;81.45;43.92;;;;;;;;;;5100251;28;20450;-77
2022/03/24 07:59:38;;;;;;;80.82;43.40;;;;;;;;;;5117298;28;20532;-77
2022/03/24 08:02:04;;;;;;;73.78;43.05;;;;;;;;;;5132731;28;20031;-77
2022/03/24 08:04:30;;;;;;;76.07;43.47;;;;;;;;;;5123167;28;20043;-78
2022/03/24 08:06:56;;;;;;;77.07;43.88;;;;;;;;;;5122179;28;20050;-77
2022/03/24 08:09:22;;;;;;;77.07;43.28;;;;;;;;;;5122618;28;20042;-79
2022/03/24 08:11:48;;;;;;;71.90;42.30;;;;;;;;;;5100003;28;20506;-77
2022/03/24 08:14:14;;;;;;;76.97;42.13;;;;;;;;;;5123870;28;20054;-76
2022/03/24 08:16:40;;;;;;;76.68;43.25;;;;;;;;;;5106647;28;20059;-77
2022/03/24 08:19:06;;;;;;;72.97;44.28;;;;;;;;;;5124469;28;20107;-77
2022/03/24 08:21:32;;;;;;;74.60;42.47;;;;;;;;;;5126835;28;20036;-77
2022/03/24 08:23:58;;;;;;;70.05;42.47;;;;;;;;;;5112978;28;20122;-77
2022/03/24 08:26:24;;;;;;;74.68;42.13;;;;;;;;;;5117046;28;20068;-77
2022/03/24 08:28:55;;;;;;;77.15;43.85;;;;;;;;;;5115623;28;20051;-77
2022/03/24 08:31:21;;;;;;;79.15;43.53;;;;;;;;;;5123915;28;20031;-80
2022/03/24 08:33:47;;;;;;;76.85;43.28;;;;;;;;;;5120249;28;20059;-77
2022/03/24 08:36:13;;;;;;;77.05;43.53;;;;;;;;;;5128703;28;20039;-77
2022/03/24 08:38:39;;;;;;;70.03;41.40;;;;;;;;;;5128056;28;20063;-79
2022/03/24 08:41:05;;;;;;;72.72;41.63;;;;;;;;;;5111342;28;20036;-77
2022/03/24 08:43:31;;;;;;;76.88;43.15;;;;;;;;;;5130513;28;20054;-78
2022/03/24 08:45:57;;;;;;;76.82;43.45;;;;;;;;;;5114718;28;20036;-77
2022/03/24 08:48:23;;;;;;;79.32;42.72;;;;;;;;;;5130366;28;20058;-78
2022/03/24 08:50:49;;;;;;;74.28;42.95;;;;;;;;;;5121802;28;20067;-79
2022/03/24 08:53:16;;;;;;;78.95;43.45;;;;;;;;;;5105294;28;20039;-79
2022/03/24 08:55:42;;;;;;;70.55;42.13;;;;;;;;;;5122254;28;20031;-78
2022/03/24 08:58:08;;;;;;;71.60;42.42;;;;;;;;;;5105092;28;20408;-79
2022/03/24 09:00:34;;;;;;;72.68;41.97;;;;;;;;;;5127491;28;20095;-77
2022/03/24 09:03:00;;;;;;;72.88;42.83;;;;;;;;;;5131869;28;20043;-79
2022/03/24 09:05:26;;;;;;;82.32;42.65;;;;;;;;;;5125615;28;20487;-78
2022/03/24 09:07:53;;;;;;;76.13;43.03;;;;;;;;;;5122251;28;20130;-78
2022/03/24 09:10:19;;;;;;;80.38;42.65;;;;;;;;;;5122989;28;20039;-78
2022/03/24 09:12:46;;;;;;;72.57;42.47;;;;;;;;;;5107167;28;20077;-77
2022/03/24 09:15:13;;;;;;;79.07;42.28;;;;;;;;;;5129165;28;20040;-78
2022/03/24 09:17:39;;;;;;;68.65;42.03;;;;;;;;;;5121551;28;20360;-78
2022/03/24 09:20:16;;;;;;;70.32;41.47;;;;;;;;;;5121377;28;20050;-78
2022/03/24 09:22:45;;;;;;;69.40;41.72;;;;;;;;;;5104356;28;20046;-77
2022/03/24 09:25:12;;;;;;;73.35;41.70;;;;;;;;;;5104038;28;20036;-80
2022/03/24 09:27:38;;;;;;;67.97;41.45;;;;;;;;;;5122069;28;20036;-79
2022/03/24 09:30:05;;;;;;;75.05;40.67;;;;;;;;;;5104300;28;20054;-78
2022/03/24 09:32:31;;;;;;;75.20;40.63;;;;;;;;;;5120985;28;20363;-78
2022/03/24 09:34:58;;;;;;;69.13;41.30;;;;;;;;;;5121114;28;20411;-78
2022/03/24 09:37:24;;;;;;;71.45;42.30;;;;;;;;;;5121005;28;20047;-79
2022/03/24 09:39:50;;;;;;;62.88;39.63;;;;;;;;;;5120335;28;20036;-79
2022/03/24 09:42:17;;;;;;;71.65;41.15;;;;;;;;;;5120849;28;20095;-79
2022/03/24 09:44:43;;;;;;;71.97;42.25;;;;;;;;;;5120218;28;20035;-79
2022/03/24 09:47:12;;;;;;;72.22;41.80;;;;;;;;;;5103510;28;20032;-78
2022/03/24 09:49:38;;;;;;;74.43;40.90;;;;;;;;;;5105419;28;20132;-79
2022/03/24 09:52:04;;;;;;;64.47;41.08;;;;;;;;;;5121858;28;20471;-80
2022/03/24 09:54:30;;;;;;;68.50;40.90;;;;;;;;;;5122140;28;20367;-80
2022/03/24 09:56:56;;;;;;;72.70;40.20;;;;;;;;;;5121624;28;20040;-79
2022/03/24 09:59:22;;;;;;;63.53;38.13;;;;;;;;;;5122975;28;20039;-80
2022/03/24 10:01:48;;;;;;;59.70;37.38;;;;;;;;;;5104327;28;20104;-80
2022/03/24 10:04:14;;;;;;;66.63;39.63;;;;;;;;;;5121609;28;20495;-80
2022/03/24 10:06:40;;;;;;;68.65;40.10;;;;;;;;;;5121861;28;20035;-82
2022/03/24 10:09:08;;;;;;;68.07;39.83;;;;;;;;;;5121185;28;20073;-79
2022/03/24 10:11:35;;;;;;;70.93;40.03;;;;;;;;;;5123251;28;20048;-79
2022/03/24 10:14:01;;;;;;;67.97;39.22;;;;;;;;;;5105212;28;20035;-80
2022/03/24 10:16:34;;;;;;;72.35;40.00;;;;;;;;;;5122426;28;20039;-81
2022/03/24 10:19:01;;;;;;;67.20;38.92;;;;;;;;;;5123958;28;20059;-79
2022/03/24 10:21:31;;;;;;;68.57;38.90;;;;;;;;;;5108335;28;20054;-80
2022/03/24 10:24:00;;;;;;;63.75;38.55;;;;;;;;;;5122755;28;20371;-80
2022/03/24 10:26:45;;;;;;;64.53;38.00;;;;;;;;;;5122832;27;20039;-79
2022/03/24 10:29:11;;;;;;;61.80;38.10;;;;;;;;;;5123404;28;20047;-80
2022/03/24 10:31:37;;;;;;;59.75;36.67;;;;;;;;;;5107767;28;20035;-79
2022/03/24 10:34:04;;;;;;;57.60;35.00;;;;;;;;;;5121575;28;20050;-79
2022/03/24 10:36:30;;;;;;;62.10;35.75;;;;;;;;;;5103842;28;20096;-80
2022/03/24 10:38:59;;;;;;;62.55;36.83;;;;;;;;;;5109782;28;20040;-81
2022/03/24 10:41:25;;;;;;;61.25;34.95;;;;;;;;;;5123065;28;20063;-80
2022/03/24 10:43:52;;;;;;;57.47;33.28;;;;;;;;;;5122233;28;20043;-80
2022/03/24 10:46:18;;;;;;;61.22;34.60;;;;;;;;;;5122069;28;20077;-80
2022/03/24 10:48:45;;;;;;;59.35;33.58;;;;;;;;;;5120119;28;20058;-79
2022/03/24 10:51:11;;;;;;;61.45;34.05;;;;;;;;;;5102854;28;20031;-78
2022/03/24 10:53:40;;;;;;;49.17;29.23;;;;;;;;;;5104012;28;20039;-78
2022/03/24 10:56:14;;;;;;;50.28;29.70;;;;;;;;;;5120809;28;20062;-79
2022/03/24 10:58:44;;;;;;;52.15;30.75;;;;;;;;;;5103186;28;20106;-79
2022/03/24 11:01:11;;;;;;;53.25;30.17;;;;;;;;;;5102630;28;20514;-79
2022/03/24 11:03:37;;;;;;;55.20;31.67;;;;;;;;;;5120976;28;20055;-79
2022/03/24 11:06:07;;;;;;;59.63;32.35;;;;;;;;;;5138021;28;20031;-78
2022/03/24 11:08:34;;;;;;;53.63;29.73;;;;;;;;;;5140307;28;20040;-78
2022/03/24 11:11:00;;;;;;;50.55;27.58;;;;;;;;;;5140141;28;20078;-79
2022/03/24 11:13:28;;;;;;;51.33;26.70;;;;;;;;;;5139325;28;20052;-78
2022/03/24 11:15:54;;;;;;;47.47;26.70;;;;;;;;;;5103564;28;20077;-79
2022/03/24 11:18:21;;;;;;;58.08;31.20;;;;;;;;;;5117762;28;20035;-80
2022/03/24 11:20:49;;;;;;;60.50;33.70;;;;;;;;;;5101590;28;20516;-80
2022/03/24 11:23:31;;;;;;;55.60;32.95;;;;;;;;;;5122263;28;20069;-80
2022/03/24 11:25:57;;;;;;;61.22;32.80;;;;;;;;;;5105000;28;20040;-79
2022/03/24 11:28:24;;;;;;;67.43;34.78;;;;;;;;;;5124744;28;20046;-78
2022/03/24 11:30:51;;;;;;;62.95;37.13;;;;;;;;;;5127991;28;20074;-79
2022/03/24 11:33:17;;;;;;;64.70;37.20;;;;;;;;;;5106256;28;20481;-78
2022/03/24 11:35:43;;;;;;;58.92;35.40;;;;;;;;;;5123391;28;20119;-79
2022/03/24 11:38:09;;;;;;;58.33;36.20;;;;;;;;;;5102269;28;20040;-78
2022/03/24 11:40:36;;;;;;;58.03;36.58;;;;;;;;;;5119572;28;20032;-79
2022/03/24 11:43:09;;;;;;;63.42;38.20;;;;;;;;;;5119287;28;20043;-79
2022/03/24 11:45:36;;;;;;;64.03;38.80;;;;;;;;;;5122839;28;20066;-78
2022/03/24 11:48:05;;;;;;;67.13;40.30;;;;;;;;;;5126615;28;20054;-80
2022/03/24 11:50:35;;;;;;;66.88;38.92;;;;;;;;;;5124695;28;20120;-81
2022/03/24 11:53:16;;;;;;;62.25;38.25;;;;;;;;;;5121947;28;20142;-80
2022/03/24 11:56:03;;;;;;;61.55;38.80;;;;;;;;;;5120562;28;20040;-82
2022/03/24 11:58:29;;;;;;;63.97;37.35;;;;;;;;;;5120186;28;20031;-80
2022/03/24 12:00:56;;;;;;;62.60;36.92;;;;;;;;;;5118923;28;20053;-80
2022/03/24 12:03:41;;;;;;;59.03;36.70;;;;;;;;;;5119330;28;20047;-80
2022/03/24 12:06:07;;;;;;;59.33;36.90;;;;;;;;;;5119616;28;20039;-82
2022/03/24 12:09:03;;;;;;;60.72;37.28;;;;;;;;;;5119420;28;20039;-79
2022/03/24 12:11:32;;;;;;;66.28;38.20;;;;;;;;;;5101485;28;20044;-80
2022/03/24 12:13:58;;;;;;;64.28;37.03;;;;;;;;;;5117905;28;20071;-79
2022/03/24 12:16:25;;;;;;;63.22;39.03;;;;;;;;;;5118207;28;20043;-80
2022/03/24 12:18:51;;;;;;;62.85;38.83;;;;;;;;;;5101219;28;20126;-78
2022/03/24 12:21:24;;;;;;;66.25;38.90;;;;;;;;;;5117697;28;20065;-79
2022/03/24 12:24:19;;;;;;;61.42;38.92;;;;;;;;;;5119277;28;20038;-79
2022/03/24 12:26:51;;;;;;;63.45;39.22;;;;;;;;;;5106461;28;20086;-82
2022/03/24 12:29:19;;;;;;;64.07;38.45;;;;;;;;;;5118220;28;20366;-80
2022/03/24 12:31:58;;;;;;;63.35;37.60;;;;;;;;;;5101708;28;20103;-80
2022/03/24 12:34:39;;;;;;;65.85;39.00;;;;;;;;;;5100413;28;20039;-79
2022/03/24 12:37:25;;;;;;;68.43;39.38;;;;;;;;;;5118727;28;20091;-81
2022/03/24 12:40:09;;;;;;;61.63;40.25;;;;;;;;;;5120823;28;20043;-78
2022/03/24 12:42:47;;;;;;;67.07;39.95;;;;;;;;;;5123910;28;20105;-78
2022/03/24 12:45:28;;;;;;;60.92;39.03;;;;;;;;;;5104437;28;20039;-78
2022/03/24 12:47:58;;;;;;;62.97;40.03;;;;;;;;;;5123609;28;20043;-79
2022/03/24 12:50:45;;;;;;;65.47;41.38;;;;;;;;;;5121131;28;20055;-78
2022/03/24 12:53:11;;;;;;;61.30;39.70;;;;;;;;;;5114240;28;20071;-77
2022/03/24 12:55:38;;;;;;;64.25;40.15;;;;;;;;;;5132873;28;20039;-78
2022/03/24 12:58:04;;;;;;;65.47;40.78;;;;;;;;;;5116316;28;20050;-79
2022/03/24 13:00:34;;;;;;;66.45;41.80;;;;;;;;;;5120694;28;20059;-83
2022/03/24 13:03:03;;;;;;;62.80;40.65;;;;;;;;;;5119025;28;20044;-80
2022/03/24 13:05:32;;;;;;;68.88;41.15;;;;;;;;;;5118558;28;20035;-80
2022/03/24 13:07:58;;;;;;;64.40;41.58;;;;;;;;;;5101729;28;20503;-78
2022/03/24 13:10:25;;;;;;;67.72;41.15;;;;;;;;;;5118843;28;20275;-78
2022/03/24 13:12:55;;;;;;;68.80;41.10;;;;;;;;;;5099622;28;20119;-79
2022/03/24 13:15:29;;;;;;;63.63;40.58;;;;;;;;;;5105207;28;20035;-78
2022/03/24 13:17:59;;;;;;;65.72;40.67;;;;;;;;;;5100693;28;20046;-78
2022/03/24 13:20:29;;;;;;;67.18;41.90;;;;;;;;;;5115607;28;20439;-78
2022/03/24 13:22:57;;;;;;;66.07;41.17;;;;;;;;;;5100034;28;20043;-78
2022/03/24 13:25:24;;;;;;;63.78;41.30;;;;;;;;;;5116898;28;20126;-78
2022/03/24 13:27:51;;;;;;;64.45;41.03;;;;;;;;;;5118347;28;20111;-78
2022/03/24 13:30:22;;;;;;;68.55;43.22;;;;;;;;;;5116957;28;20047;-78
2022/03/24 13:32:57;;;;;;;66.45;41.30;;;;;;;;;;5117627;28;20073;-78
2022/03/24 13:35:24;;;;;;;65.90;41.20;;;;;;;;;;5118092;28;20131;-78
2022/03/24 13:37:52;;;;;;;68.60;41.67;;;;;;;;;;5103304;28;20067;-79
2022/03/24 13:40:22;;;;;;;68.18;42.35;;;;;;;;;;5120396;28;20043;-78
2022/03/24 13:42:48;;;;;;;64.47;41.00;;;;;;;;;;5129515;28;20046;-78
2022/03/24 13:45:14;;;;;;;64.72;41.65;;;;;;;;;;5125241;28;20046;-79
2022/03/24 13:47:44;;;;;;;69.47;43.25;;;;;;;;;;5123490;28;20074;-79
2022/03/24 13:50:10;;;;;;;64.80;41.95;;;;;;;;;;5105189;28;20039;-77
2022/03/24 13:52:38;;;;;;;71.18;42.05;;;;;;;;;;5122034;28;20075;-78
2022/03/24 13:55:05;;;;;;;62.47;41.08;;;;;;;;;;5123466;28;20044;-79
2022/03/24 13:57:31;;;;;;;61.53;41.15;;;;;;;;;;5121779;28;20153;-77
2022/03/24 13:59:57;;;;;;;64.13;43.28;;;;;;;;;;5121953;28;20366;-78
2022/03/24 14:02:24;;;;;;;65.85;42.53;;;;;;;;;;5105533;28;20047;-80
2022/03/24 14:05:23;;;;;;;61.65;42.83;;;;;;;;;;5130806;28;20043;-78
2022/03/24 14:07:59;;;;;;;60.50;42.72;;;;;;;;;;5091425;28;20443;-80
2022/03/24 14:10:43;;;;;;;71.15;43.72;;;;;;;;;;5125134;28;20043;-80
2022/03/24 14:13:13;;;;;;;64.35;45.03;;;;;;;;;;5124870;28;20086;-78
2022/03/24 14:15:39;;;;;;;67.55;44.03;;;;;;;;;;5123141;28;20087;-78
2022/03/24 14:18:12;;;;;;;66.00;41.55;;;;;;;;;;5105214;28;20046;-79
2022/03/24 14:20:42;;;;;;;63.30;42.65;;;;;;;;;;5122229;28;20070;-78